Airfield :
LOGIN :

Register | Disclaimer

   EN    FR    IT 

 










Legend :    VFR   Marginal VFR   IFR   Intensive IFR   Very Intensive IFR
Visi :
Ceiling :
>= 8 km
>= 3000ft
5 to 8 km
1000 to 3000 ft
1500m to 5 km
500 to 1000 ft
800 to 1500m
200 to 500 ft
< 800m
< 200 ft
Symbols :   Thunderstorms  Fog  Heavy snow  Heavy precipitations  Wind > 20 kt
SIGMETs :     Misc.  Thunderstorms  Icing  Turbulence  Mountain Waves  Volcanic Ashes






- Airport Elevation : 308 ft
- IATA code : MHG


EDFM - Mannheim-City

CURRENT METAR :
  • 271620Z 12010KT 6000 -RASN FEW005 BKN013 02/01 Q0989

EXPIRED METARs :
  • 271550Z 13012KT 3000 -SNRA BR SCT006 BKN012 02/01 Q0990
  • 271520Z 12014KT 6000 -RA SCT009 BKN013 02/01 Q0991
  • 271450Z 12011KT 7000 -RASN SCT003 BKN012 02/01 Q0993
  • 271420Z 12008KT 090V150 2500 -SN BR BKN004 01/00 Q0994
  • 271350Z 14009KT 110V170 3000 -SN BR BKN006 02/01 Q0995

TAF TAF EDFM
Valid from the 27 at 15:00 until the 27 at 21:00 UTC


271400Z 2715/2721 15010KT 9999 BKN015
TEMPO 2715/2719 2000 SN BKN004
BECMG 2716/2719 29015G25KT
BECMG 2719/2721 31012KT



MET'MAP, your aeronautical weather chart ! - Copyright ORBIFLY December 2007 - Disclaimer

ORBIFLY MET'MAP TEAM :

Programming & Development : Alexandra Zaïnal
Concept & original design : Baudouin d'Aumeries
Assistance for programming : Marc-Olivier Méhu
Technical & hardware support : Manuel Goepfert

Contact : metmap@orbifly.com




SOURCES & CREDITS :

   NOAA